NE45 weather

Krause Private Airport
Ansley, Nebraska, United States

Public forecast

Using degrees Fahrenheit for public forecast. Weather courtesy of forecast.io.

Closest aviation weather report (METAR) to Krause Private Airport

Closest report is Broken Bow Municipal Airport, 14.8 nm (27.4 km) NW. Retrieved 2019/10/18 17:53 UTC (33 minutes ago):

KBBW 181753Z AUTO 30014G21KT 10SM CLR 19/04 A2949 RMK AO2 SLP974 T01940039 10194 20056 53019

Closest aviation forecast (TAF) to Krause Private Airport

Closest forecast is Kearney Regional Airport, 37.9 nm (70.1 km) SSE. Retrieved 2019/10/18 18:22 UTC (4 minutes ago):

TAF KEAR 181720Z 1818/1918 23015G25KT P6SM SKC FM182000 31015G23KT P6SM SKC FM190100 34011KT P6SM SCT040 SCT150 FM190600 33007KT P6SM SCT250 FM191200 30006KT P6SM SKC